| time (UTC) | temp F | wind direction | speed knots | gust knots | rain 1hr in | rain 24hr in | rain mn in | humidity % | barometer mb |
| 20260906093016 | 72 | 0.0 | 0.0 | 0.00 | 0.00 | 0.00 | 91 | 1014.5 | |
| 20260906091816 | 73 | 0.0 | 0.9 | 0.00 | 0.00 | 0.00 | 91 | 1014.5 | |
| 20260906090636 | 73 | 0.0 | 0.0 | 0.00 | 0.00 | 0.00 | 90 | 1014.4 | |
| 20260906085436 | 73 | 0.0 | 0.0 | 0.00 | 0.00 | 0.00 | 90 | 1014.2 | |
| 20260906084216 | 73 | 299 | 0.0 | 0.9 | 0.00 | 0.00 | 0.00 | 89 | 1014.1 |
| 20260906083016 | 73 | 0.0 | 0.0 | 0.00 | 0.00 | 0.00 | 89 | 1013.9 | |
| 20260906081816 | 73 | 327 | 0.0 | 0.9 | 0.00 | 0.00 | 0.00 | 89 | 1013.9 |
| 20260906080615 | 73 | 327 | 0.0 | 0.9 | 0.00 | 0.00 | 0.00 | 89 | 1014.1 |
| 20260906075416 | 73 | 0.0 | 0.9 | 0.00 | 0.00 | 0.00 | 89 | 1014.0 | |
| 20260906074216 | 74 | 327 | 0.0 | 0.9 | 0.00 | 0.00 | 0.00 | 88 | 1014.0 |
| 20260906073016 | 74 | 0.0 | 0.0 | 0.00 | 0.00 | 0.00 | 88 | 1014.0 | |
| 20260906071816 | 75 | 327 | 0.0 | 0.9 | 0.00 | 0.00 | 0.00 | 87 | 1014.2 |
| 20260906070615 | 75 | 327 | 0.0 | 0.9 | 0.00 | 0.00 | 0.00 | 87 | 1014.2 |
| 20260906065415 | 75 | 335 | 0.0 | 0.9 | 0.00 | 0.00 | 0.00 | 86 | 1014.2 |
| 20260906064215 | 75 | 342 | 0.9 | 1.7 | 0.00 | 0.00 | 0.00 | 86 | 1014.3 |
| 20260906063015 | 75 | 334 | 0.9 | 0.9 | 0.00 | 0.00 | 0.00 | 86 | 1014.3 |
| 20260906061835 | 75 | 350 | 0.0 | 1.7 | 0.00 | 0.00 | 0.00 | 86 | 1014.5 |
| 20260906060615 | 76 | 319 | 0.0 | 1.7 | 0.00 | 0.00 | 0.00 | 86 | 1014.6 |
| 20260906055416 | 76 | 319 | 0.0 | 1.7 | 0.00 | 0.00 | 0.00 | 86 | 1014.7 |
| 20260906054215 | 76 | 8 | 0.0 | 1.7 | 0.00 | 0.00 | 0.00 | 85 | 1014.8 |
| 20260906053015 | 76 | 343 | 0.9 | 1.7 | 0.00 | 0.00 | 0.00 | 85 | 1014.7 |
| 20260906051815 | 76 | 343 | 0.0 | 0.9 | 0.00 | 0.00 | 0.00 | 85 | 1014.7 |
| 20260906050615 | 77 | 351 | 0.9 | 1.7 | 0.00 | 0.00 | 0.00 | 84 | 1014.8 |
| 20260906045415 | 77 | 209 | 0.0 | 0.9 | 0.00 | 0.00 | 0.00 | 83 | 1014.8 |
| 20260906044235 | 77 | 198 | 0.0 | 0.9 | 0.00 | 0.00 | 0.00 | 83 | 1014.8 |
| 20260906043035 | 77 | 257 | 0.0 | 0.9 | 0.00 | 0.00 | 0.00 | 82 | 1014.8 |
| 20260906041815 | 78 | 0.0 | 0.9 | 0.00 | 0.00 | 0.00 | 81 | 1014.9 | |
| 20260906040615 | 78 | 228 | 0.0 | 0.9 | 0.00 | 0.00 | 0.00 | 80 | 1014.9 |
| 20260906035416 | 78 | 248 | 0.0 | 0.9 | 0.00 | 0.00 | 0.00 | 79 | 1015.2 |
| 20260906034216 | 79 | 210 | 0.0 | 0.9 | 0.00 | 0.00 | 0.00 | 79 | 1015.2 |
| 20260906033036 | 79 | 145 | 0.9 | 1.7 | 0.00 | 0.00 | 0.00 | 78 | 1015.3 |
| 20260906031816 | 79 | 36 | 0.0 | 0.9 | 0.00 | 0.00 | 0.00 | 78 | 1015.4 |
| 20260906030616 | 80 | 330 | 0.9 | 0.9 | 0.00 | 0.00 | 0.00 | 77 | 1015.4 |
| 20260906025416 | 80 | 313 | 0.9 | 1.7 | 0.00 | 0.00 | 0.00 | 75 | 1015.4 |
| 20260906024216 | 80 | 83 | 0.0 | 0.9 | 0.00 | 0.00 | 0.00 | 76 | 1015.3 |
| 20260906023016 | 79 | 19 | 0.0 | 0.9 | 0.00 | 0.00 | 0.00 | 77 | 1015.3 |
| 20260906021816 | 79 | 284 | 0.9 | 1.7 | 0.00 | 0.00 | 0.00 | 77 | 1015.4 |
| 20260906020616 | 79 | 284 | 0.9 | 0.9 | 0.00 | 0.00 | 0.00 | 76 | 1015.4 |
| 20260906015416 | 79 | 284 | 0.0 | 0.9 | 0.00 | 0.00 | 0.00 | 75 | 1015.1 |
| 20260906014216 | 80 | 0.0 | 0.0 | 0.00 | 0.00 | 0.00 | 74 | 1014.8 | |
| 20260906013016 | 80 | 284 | 0.0 | 0.9 | 0.00 | 0.00 | 0.00 | 73 | 1014.7 |
| 20260906011816 | 80 | 0.0 | 0.9 | 0.00 | 0.00 | 0.00 | 72 | 1014.6 | |
| 20260906010636 | 81 | 284 | 0.0 | 0.9 | 0.00 | 0.00 | 0.00 | 72 | 1014.2 |
| 20260906005416 | 81 | 0.0 | 0.9 | 0.00 | 0.00 | 0.00 | 71 | 1014.0 | |
| 20260906004216 | 82 | 284 | 0.0 | 0.9 | 0.00 | 0.00 | 0.00 | 70 | 1014.3 |
| 20260906003016 | 82 | 306 | 0.0 | 0.9 | 0.00 | 0.00 | 0.00 | 69 | 1014.2 |
| 20260906001815 | 82 | 71 | 0.0 | 1.7 | 0.00 | 0.00 | 0.00 | 69 | 1014.1 |
| 20260906000616 | 83 | 249 | 0.9 | 1.7 | 0.00 | 0.00 | 0.00 | 67 | 1014.2 |
| 20260905235416 | 84 | 327 | 0.0 | 0.9 | 0.00 | 0.00 | 0.00 | 66 | 1013.8 |
| 20260905234256 | 84 | 326 | 0.9 | 2.6 | 0.00 | 0.00 | 0.00 | 64 | 1014.0 |
| 20260905233016 | 85 | 348 | 0.0 | 1.7 | 0.00 | 0.00 | 0.00 | 64 | 1013.9 |
| 20260905231815 | 85 | 348 | 0.0 | 1.7 | 0.00 | 0.00 | 0.00 | 63 | 1013.9 |
| 20260905230635 | 86 | 323 | 0.0 | 1.7 | 0.00 | 0.00 | 0.00 | 61 | 1013.8 |
| 20260905225415 | 86 | 123 | 0.9 | 2.6 | 0.00 | 0.00 | 0.00 | 60 | 1013.7 |
| 20260905224235 | 87 | 102 | 1.7 | 2.6 | 0.00 | 0.00 | 0.00 | 57 | 1013.5 |
| 20260905223055 | 88 | 230 | 0.0 | 1.7 | 0.00 | 0.00 | 0.00 | 58 | 1013.6 |
| 20260905221815 | 90 | 314 | 0.9 | 3.5 | 0.00 | 0.00 | 0.00 | 57 | 1013.4 |
| 20260905220617 | 92 | 181 | 1.7 | 3.5 | 0.00 | 0.00 | 0.00 | 53 | 1013.6 |
| 20260905215415 | 99 | 310 | 4.3 | 13.9 | 0.00 | 0.00 | 0.00 | 43 | 1013.5 |
| 20260905214215 | 100 | 194 | 0.9 | 2.6 | 0.00 | 0.00 | 0.00 | 41 | 1012.7 |
| 20260905213015 | 101 | 204 | 0.0 | 1.7 | 0.00 | 0.00 | 0.00 | 40 | 1012.8 |
| 20260905211815 | 101 | 187 | 1.7 | 4.3 | 0.00 | 0.00 | 0.00 | 41 | 1012.9 |
| 20260905210615 | 101 | 172 | 1.7 | 4.3 | 0.00 | 0.00 | 0.00 | 41 | 1013.1 |
| 20260905205415 | 100 | 301 | 0.9 | 5.2 | 0.00 | 0.00 | 0.00 | 43 | 1013.3 |
| 20260905204215 | 100 | 176 | 1.7 | 3.5 | 0.00 | 0.00 | 0.00 | 43 | 1013.2 |
| 20260905203015 | 100 | 151 | 1.7 | 6.1 | 0.00 | 0.00 | 0.00 | 43 | 1013.0 |
| 20260905201815 | 100 | 209 | 1.7 | 5.2 | 0.00 | 0.00 | 0.00 | 42 | 1013.2 |
| 20260905200635 | 100 | 166 | 1.7 | 3.5 | 0.00 | 0.00 | 0.00 | 44 | 1013.3 |
| 20260905195435 | 100 | 176 | 2.6 | 4.3 | 0.00 | 0.00 | 0.00 | 44 | 1013.6 |
| 20260905194215 | 100 | 176 | 1.7 | 3.5 | 0.00 | 0.00 | 0.00 | 45 | 1013.6 |
| 20260905193015 | 99 | 211 | 1.7 | 4.3 | 0.00 | 0.00 | 0.00 | 47 | 1013.8 |
| 20260905191815 | 99 | 180 | 2.6 | 7.0 | 0.00 | 0.00 | 0.00 | 47 | 1013.9 |
| 20260905190615 | 99 | 170 | 0.9 | 3.5 | 0.00 | 0.00 | 0.00 | 49 | 1014.0 |
| 20260905185415 | 98 | 80 | 0.9 | 3.5 | 0.00 | 0.00 | 0.00 | 48 | 1014.3 |
| 20260905184215 | 99 | 78 | 1.7 | 5.2 | 0.00 | 0.00 | 0.00 | 47 | 1014.4 |
| 20260905183015 | 99 | 43 | 1.7 | 2.6 | 0.00 | 0.00 | 0.00 | 47 | 1014.6 |
| 20260905181815 | 98 | 126 | 0.9 | 2.6 | 0.00 | 0.00 | 0.00 | 49 | 1014.8 |
| 20260905180615 | 98 | 177 | 1.7 | 3.5 | 0.00 | 0.00 | 0.00 | 49 | 1015.0 |
| 20260905175415 | 97 | 118 | 0.9 | 3.5 | 0.00 | 0.00 | 0.00 | 51 | 1015.2 |
| 20260905174215 | 96 | 137 | 0.9 | 2.6 | 0.00 | 0.00 | 0.00 | 52 | 1015.3 |
| 20260905173035 | 96 | 101 | 1.7 | 2.6 | 0.00 | 0.00 | 0.00 | 52 | 1015.5 |
| 20260905171815 | 96 | 161 | 2.6 | 5.2 | 0.00 | 0.00 | 0.00 | 52 | 1015.5 |
| 20260905170635 | 96 | 56 | 0.9 | 3.5 | 0.00 | 0.00 | 0.00 | 54 | 1015.6 |
| 20260905165415 | 96 | 184 | 1.7 | 5.2 | 0.00 | 0.00 | 0.00 | 53 | 1016.0 |
| 20260905164217 | 95 | 180 | 0.9 | 4.3 | 0.00 | 0.00 | 0.00 | 53 | 1016.1 |
| 20260905163037 | 95 | 230 | 1.7 | 3.5 | 0.00 | 0.00 | 0.00 | 55 | 1016.4 |
| 20260905161817 | 94 | 148 | 1.7 | 3.5 | 0.00 | 0.00 | 0.00 | 58 | 1016.6 |
| 20260905160617 | 93 | 169 | 2.6 | 4.3 | 0.00 | 0.00 | 0.00 | 59 | 1016.8 |
| 20260905155416 | 93 | 162 | 2.6 | 5.2 | 0.00 | 0.00 | 0.00 | 59 | 1016.9 |
| 20260905154217 | 92 | 10 | 1.7 | 2.6 | 0.00 | 0.00 | 0.00 | 61 | 1017.1 |
| 20260905153016 | 91 | 117 | 0.9 | 2.6 | 0.00 | 0.00 | 0.00 | 63 | 1017.1 |
| 20260905151816 | 90 | 349 | 0.9 | 3.5 | 0.00 | 0.00 | 0.00 | 65 | 1017.0 |
| 20260905150637 | 90 | 200 | 1.7 | 3.5 | 0.00 | 0.00 | 0.00 | 67 | 1017.3 |
| 20260905145416 | 89 | 25 | 0.9 | 2.6 | 0.00 | 0.00 | 0.00 | 70 | 1017.4 |
| 20260905144216 | 87 | 6 | 0.9 | 3.5 | 0.00 | 0.00 | 0.00 | 72 | 1017.6 |
| 20260905143016 | 86 | 312 | 1.7 | 3.5 | 0.00 | 0.00 | 0.00 | 75 | 1017.5 |
| 20260905141816 | 85 | 351 | 0.9 | 1.7 | 0.00 | 0.00 | 0.00 | 76 | 1017.7 |
| 20260905140616 | 84 | 6 | 0.9 | 1.7 | 0.00 | 0.00 | 0.00 | 79 | 1017.7 |
| 20260905135416 | 82 | 0 | 0.9 | 1.7 | 0.00 | 0.00 | 0.00 | 84 | 1017.8 |
| 20260905134216 | 80 | 307 | 0.9 | 3.5 | 0.00 | 0.00 | 0.00 | 87 | 1017.8 |
| 20260905133016 | 78 | 199 | 0.9 | 3.5 | 0.00 | 0.00 | 0.00 | 90 | 1017.7 |
| 20260905131836 | 77 | 259 | 0.9 | 2.6 | 0.00 | 0.00 | 0.00 | 93 | 1017.7 |
| 20260905130616 | 76 | 207 | 1.7 | 3.5 | 0.00 | 0.00 | 0.00 | 94 | 1017.9 |
| 20260905125416 | 76 | 191 | 0.9 | 2.6 | 0.00 | 0.00 | 0.00 | 96 | 1017.8 |
| 20260905124216 | 75 | 257 | 0.9 | 1.7 | 0.00 | 0.00 | 0.00 | 96 | 1017.8 |
| 20260905123016 | 74 | 250 | 0.0 | 1.7 | 0.00 | 0.00 | 0.00 | 97 | 1017.6 |
| 20260905121816 | 74 | 298 | 0.0 | 0.9 | 0.00 | 0.00 | 0.00 | 97 | 1017.5 |
| 20260905120616 | 74 | 209 | 0.0 | 0.9 | 0.00 | 0.00 | 0.00 | 97 | 1017.5 |
| 20260905115416 | 74 | 209 | 0.0 | 0.9 | 0.00 | 0.00 | 0.00 | 96 | 1017.4 |
| 20260905114216 | 73 | 173 | 0.0 | 1.7 | 0.00 | 0.00 | 0.00 | 96 | 1017.4 |
| 20260905113016 | 73 | 186 | 0.0 | 1.7 | 0.00 | 0.00 | 0.00 | 96 | 1017.5 |
| 20260905111816 | 73 | 246 | 0.0 | 0.9 | 0.00 | 0.00 | 0.00 | 96 | 1017.4 |
| 20260905110616 | 73 | 246 | 0.0 | 1.7 | 0.00 | 0.00 | 0.00 | 96 | 1017.3 |
| 20260905105436 | 73 | 0.0 | 0.0 | 0.00 | 0.00 | 0.00 | 96 | 1017.1 | |
| 20260905104216 | 73 | 0.0 | 0.0 | 0.00 | 0.00 | 0.00 | 96 | 1017.1 | |
| 20260905103016 | 73 | 0.0 | 0.0 | 0.00 | 0.00 | 0.00 | 96 | 1017.0 | |
| 20260905101816 | 73 | 0.0 | 0.0 | 0.00 | 0.00 | 0.00 | 95 | 1016.9 | |
| 20260905100638 | 73 | 0.0 | 0.0 | 0.00 | 0.00 | 0.00 | 95 | 1016.8 | |
| 20260905095436 | 74 | 0.0 | 0.0 | 0.00 | 0.00 | 0.00 | 95 | 1016.8 | |
| 20260905094215 | 74 | 0.0 | 0.0 | 0.00 | 0.00 | 0.00 | 95 | 1016.9 |